Time;durP1;ratioP1;P1;durP2;ratioP2;P2;SDS_P1;SDS_P2;PMS_P1;PMS_P2;Temp;Humidity;BMP_temperature;BMP_pressure;BME280_temperature;BME280_humidity;BME280_pressure;Samples;Min_cycle;Max_cycle;Signal;HPM_P1;HPM_P2
2022/08/25 00:01:31;;;;;;;5.80;5.40;;;19.90;99.90;;;;;;5072535;28;20210;-83
2022/08/25 00:03:58;;;;;;;5.70;5.30;;;19.90;99.90;;;;;;5072407;28;20167;-83
2022/08/25 00:06:24;;;;;;;6.33;5.83;;;19.90;99.90;;;;;;5072520;28;20175;-84
2022/08/25 00:08:50;;;;;;;6.17;5.60;;;19.80;99.90;;;;;;5071073;28;20178;-85
2022/08/25 00:11:20;;;;;;;7.70;5.73;;;19.80;99.90;;;;;;5072048;28;20539;-83
2022/08/25 00:13:50;;;;;;;5.97;5.37;;;19.80;99.90;;;;;;5071035;28;20171;-83
2022/08/25 00:16:17;;;;;;;5.83;5.43;;;19.80;99.90;;;;;;5072169;28;20163;-83
2022/08/25 00:18:48;;;;;;;6.97;6.23;;;19.80;99.90;;;;;;5071900;28;20551;-83
2022/08/25 00:21:14;;;;;;;6.40;5.80;;;19.80;99.90;;;;;;5072012;28;20171;-83
2022/08/25 00:23:41;;;;;;;5.90;5.50;;;19.80;99.90;;;;;;5072071;28;20210;-83
2022/08/25 00:26:08;;;;;;;6.37;5.87;;;19.80;99.90;;;;;;5071876;28;20629;-83
2022/08/25 00:28:35;;;;;;;7.57;5.60;;;19.70;99.90;;;;;;5072568;28;20171;-83
2022/08/25 00:31:01;;;;;;;5.90;5.40;;;19.80;99.90;;;;;;5071880;28;20566;-83
2022/08/25 00:33:29;;;;;;;6.10;5.70;;;19.80;99.90;;;;;;5071800;28;20179;-83
2022/08/25 00:35:56;;;;;;;6.80;5.40;;;19.80;99.90;;;;;;5071651;28;20266;-83
2022/08/25 00:38:23;;;;;;;6.20;5.60;;;19.80;99.90;;;;;;5071672;28;20210;-83
2022/08/25 00:41:04;;;;;;;6.40;5.90;;;19.80;99.90;;;;;;5071623;28;20173;-83
2022/08/25 00:43:40;;;;;;;6.27;5.67;;;19.80;99.90;;;;;;5070361;28;20178;-83
2022/08/25 00:46:08;;;;;;;6.07;5.50;;;19.80;99.90;;;;;;5070327;28;20179;-83
2022/08/25 00:48:35;;;;;;;6.03;5.53;;;19.70;99.90;;;;;;5071505;28;20181;-83
2022/08/25 00:51:02;;;;;;;6.10;5.60;;;19.70;99.90;;;;;;5071622;28;20227;-83
2022/08/25 00:53:29;;;;;;;6.20;5.60;;;19.80;99.90;;;;;;5071548;28;20178;-83
2022/08/25 00:55:57;;;;;;;8.63;5.07;;;19.80;99.90;;;;;;5071346;28;20232;-83
2022/08/25 00:58:26;;;;;;;7.23;6.57;;;19.90;99.90;;;;;;5071314;28;20274;-83
2022/08/25 01:00:55;;;;;;;5.47;5.07;;;19.90;99.90;;;;;;5070454;28;20177;-82
2022/08/25 01:03:23;;;;;;;6.10;5.57;;;19.80;99.90;;;;;;5070634;28;20583;-83
2022/08/25 01:05:50;;;;;;;5.73;5.33;;;19.80;99.90;;;;;;5069345;28;20171;-82
2022/08/25 01:08:20;;;;;;;5.70;5.30;;;19.80;99.90;;;;;;5069185;28;20266;-82
2022/08/25 01:10:46;;;;;;;6.23;5.50;;;19.80;99.90;;;;;;5072124;28;20174;-82
2022/08/25 01:13:19;;;;;;;5.57;5.10;;;19.80;99.90;;;;;;5093831;28;20179;-82
2022/08/25 01:15:46;;;;;;;5.90;5.50;;;19.80;99.90;;;;;;5079082;28;20156;-83
2022/08/25 01:18:13;;;;;;;5.93;5.40;;;19.80;99.90;;;;;;5071981;28;20206;-83
2022/08/25 01:20:39;;;;;;;5.87;5.50;;;19.80;99.90;;;;;;5071042;28;20171;-83
2022/08/25 01:23:04;;;;;;;5.60;5.30;;;19.80;99.90;;;;;;5071030;28;20857;-83
2022/08/25 01:25:52;;;;;;;6.13;5.73;;;19.80;99.90;;;;;;5071057;28;20175;-83
2022/08/25 01:28:19;;;;;;;6.17;5.67;;;19.90;99.90;;;;;;5070936;28;20174;-84
2022/08/25 01:30:46;;;;;;;5.70;5.30;;;19.90;99.90;;;;;;5070977;28;20167;-83
2022/08/25 01:33:12;;;;;;;6.37;5.33;;;19.80;99.90;;;;;;5070709;28;20199;-83
2022/08/25 01:35:39;;;;;;;6.03;5.40;;;19.80;99.90;;;;;;5069466;28;20178;-83
2022/08/25 01:38:06;;;;;;;6.07;5.67;;;19.70;99.90;;;;;;5070396;28;20198;-83
2022/08/25 01:40:34;;;;;;;6.47;5.87;;;19.70;99.90;;;;;;5068758;28;20963;-83
2022/08/25 01:43:10;;;;;;;5.23;4.83;;;19.70;99.90;;;;;;5070689;28;20203;-83
2022/08/25 01:45:39;;;;;;;6.33;5.33;;;19.70;99.90;;;;;;5069381;28;20175;-83
2022/08/25 01:48:06;;;;;;;7.07;5.43;;;19.70;99.90;;;;;;5070435;28;20175;-83
2022/08/25 01:50:33;;;;;;;6.03;5.47;;;19.70;99.90;;;;;;5070535;28;20175;-83
2022/08/25 01:53:25;;;;;;;6.23;5.63;;;19.70;99.90;;;;;;5070889;28;20199;-83
2022/08/25 01:55:51;;;;;;;7.17;5.50;;;19.60;99.90;;;;;;5070781;28;20167;-84
2022/08/25 01:58:27;;;;;;;5.87;5.37;;;19.60;99.90;;;;;;5068720;28;20227;-83
2022/08/25 02:00:56;;;;;;;6.27;5.73;;;19.60;99.90;;;;;;5070085;28;20167;-83
2022/08/25 02:03:23;;;;;;;5.97;5.47;;;19.50;99.90;;;;;;5070245;28;20257;-83
2022/08/25 02:05:50;;;;;;;6.53;5.93;;;19.50;99.90;;;;;;5070601;28;20164;-84
2022/08/25 02:08:16;;;;;;;6.73;5.60;;;19.50;99.90;;;;;;5070547;28;20182;-83
2022/08/25 02:10:43;;;;;;;7.50;5.90;;;19.50;99.90;;;;;;5070528;28;20175;-83
2022/08/25 02:13:09;;;;;;;5.87;5.37;;;19.50;99.90;;;;;;5070474;28;20191;-83
2022/08/25 02:15:43;;;;;;;5.90;5.50;;;19.40;99.90;;;;;;5070410;28;20179;-83
2022/08/25 02:18:09;;;;;;;6.23;5.80;;;19.40;99.90;;;;;;5068881;28;20594;-82
2022/08/25 02:20:36;;;;;;;6.57;5.63;;;19.40;99.90;;;;;;5073253;28;20579;-83
2022/08/25 02:23:03;;;;;;;6.83;6.17;;;19.50;99.90;;;;;;5074524;28;20810;-83
2022/08/25 02:25:30;;;;;;;6.30;5.80;;;19.50;99.90;;;;;;5074343;28;20174;-83
2022/08/25 02:27:56;;;;;;;7.30;6.20;;;19.40;99.90;;;;;;5072669;28;20298;-83
2022/08/25 02:30:22;;;;;;;5.80;5.30;;;19.40;99.90;;;;;;5074507;28;20274;-83
2022/08/25 02:32:48;;;;;;;6.53;5.33;;;19.40;99.90;;;;;;5074462;28;20171;-83
2022/08/25 02:35:14;;;;;;;7.57;5.93;;;19.40;99.90;;;;;;5074911;28;20182;-83
2022/08/25 02:37:39;;;;;;;6.07;5.57;;;19.40;99.90;;;;;;5074015;28;20215;-82
2022/08/25 02:40:06;;;;;;;6.40;5.80;;;19.30;99.90;;;;;;5073853;28;20371;-82
2022/08/25 02:42:32;;;;;;;6.83;5.80;;;19.30;99.90;;;;;;5074054;28;20172;-83
2022/08/25 02:44:58;;;;;;;6.37;5.90;;;19.40;99.90;;;;;;5072582;28;20583;-82
2022/08/25 02:47:24;;;;;;;6.67;6.07;;;19.40;99.90;;;;;;5073905;28;20176;-83
2022/08/25 02:49:51;;;;;;;6.40;5.90;;;19.40;99.90;;;;;;5077335;28;20632;-83
2022/08/25 02:52:17;;;;;;;6.57;5.50;;;19.40;99.90;;;;;;5095526;28;20163;-84
2022/08/25 02:54:43;;;;;;;6.60;5.80;;;19.40;99.90;;;;;;5078349;28;20384;-83
2022/08/25 02:57:10;;;;;;;6.73;5.57;;;19.40;99.90;;;;;;5073719;28;20234;-83
2022/08/25 02:59:37;;;;;;;5.77;5.10;;;19.40;99.90;;;;;;5073652;28;20167;-82
2022/08/25 03:02:03;;;;;;;6.63;6.03;;;19.40;99.90;;;;;;5073521;28;20175;-83
2022/08/25 03:04:30;;;;;;;6.73;6.10;;;19.40;99.90;;;;;;5073164;28;20305;-83
2022/08/25 03:06:57;;;;;;;5.80;5.30;;;19.40;99.90;;;;;;5073240;28;20167;-82
2022/08/25 03:09:24;;;;;;;6.30;5.80;;;19.40;99.90;;;;;;5073304;28;20221;-82
2022/08/25 03:11:50;;;;;;;7.30;5.80;;;19.50;99.90;;;;;;5071785;28;20179;-83
2022/08/25 03:14:16;;;;;;;7.87;5.83;;;19.50;99.90;;;;;;5073245;28;20175;-83
2022/08/25 03:16:43;;;;;;;6.37;5.77;;;19.50;99.90;;;;;;5073383;28;20168;-82
2022/08/25 03:19:09;;;;;;;6.10;5.70;;;19.60;99.90;;;;;;5072468;28;20565;-84
2022/08/25 03:21:37;;;;;;;6.27;5.67;;;19.60;99.90;;;;;;5071470;28;20189;-83
2022/08/25 03:24:05;;;;;;;6.10;5.60;;;19.60;99.90;;;;;;5072837;28;20175;-83
2022/08/25 03:29:17;;;;;;;5.80;5.40;;;19.50;99.90;;;;;;5072750;28;20709;-83
2022/08/25 03:31:44;;;;;;;6.23;5.73;;;19.50;99.90;;;;;;5072703;28;20208;-83
2022/08/25 03:34:15;;;;;;;6.20;5.77;;;19.40;99.90;;;;;;5072690;28;20179;-83
2022/08/25 03:36:42;;;;;;;6.40;5.90;;;19.40;99.90;;;;;;5073029;28;20171;-82
2022/08/25 03:39:08;;;;;;;6.80;6.13;;;19.40;99.90;;;;;;5072722;28;20294;-83
2022/08/25 03:41:34;;;;;;;6.03;5.53;;;19.40;99.90;;;;;;5072756;28;20541;-84
2022/08/25 03:44:03;;;;;;;6.67;6.07;;;19.40;99.90;;;;;;5072509;28;20175;-84
2022/08/25 03:46:33;;;;;;;7.20;5.83;;;19.30;99.90;;;;;;5072899;28;20531;-85
2022/08/25 03:49:00;;;;;;;7.87;7.17;;;19.40;99.90;;;;;;5071583;28;20182;-83
2022/08/25 03:51:33;;;;;;;7.40;6.70;;;19.30;99.90;;;;;;5072029;28;20229;-83
2022/08/25 03:54:00;;;;;;;6.23;5.60;;;19.40;99.90;;;;;;5072573;28;20262;-83
2022/08/25 03:56:26;;;;;;;7.30;5.47;;;19.40;99.90;;;;;;5072143;28;20269;-83
2022/08/25 03:58:53;;;;;;;7.37;6.77;;;19.40;99.90;;;;;;5072494;28;20234;-83
2022/08/25 04:01:19;;;;;;;6.90;6.40;;;19.40;99.90;;;;;;5072285;28;20172;-83
2022/08/25 04:03:46;;;;;;;7.17;6.47;;;19.40;99.90;;;;;;5072183;28;20179;-83
2022/08/25 04:06:13;;;;;;;6.30;5.80;;;19.40;99.90;;;;;;5072344;28;20215;-84
2022/08/25 04:08:39;;;;;;;9.03;6.30;;;19.40;99.90;;;;;;5072075;28;20514;-83
2022/08/25 04:11:08;;;;;;;9.87;6.57;;;19.40;99.90;;;;;;5072497;28;20258;-83
2022/08/25 04:13:35;;;;;;;6.27;5.77;;;19.40;99.90;;;;;;5072566;28;20175;-84
2022/08/25 04:16:01;;;;;;;7.33;5.97;;;19.30;99.90;;;;;;5072815;28;20588;-84
2022/08/25 04:18:29;;;;;;;6.77;6.17;;;19.40;99.90;;;;;;5072011;28;20210;-83
2022/08/25 04:21:07;;;;;;;5.90;5.50;;;19.40;99.90;;;;;;5071968;28;20202;-84
2022/08/25 04:23:34;;;;;;;8.27;6.27;;;19.40;99.90;;;;;;5072137;28;20163;-82
2022/08/25 04:26:00;;;;;;;6.30;5.67;;;19.50;99.90;;;;;;5073552;28;20179;-83
2022/08/25 04:28:26;;;;;;;7.27;5.87;;;19.50;99.90;;;;;;5084473;28;20229;-83
2022/08/25 04:30:52;;;;;;;6.63;6.03;;;19.50;99.90;;;;;;5094131;28;20175;-84
2022/08/25 04:33:18;;;;;;;6.63;5.83;;;19.40;99.90;;;;;;5075417;28;20186;-83
2022/08/25 04:35:48;;;;;;;6.77;6.17;;;19.50;99.90;;;;;;5072598;28;20175;-84
2022/08/25 04:38:14;;;;;;;7.77;5.77;;;19.40;99.90;;;;;;5072101;28;20260;-83
2022/08/25 04:40:40;;;;;;;6.57;5.87;;;19.50;99.90;;;;;;5072061;28;20634;-83
2022/08/25 04:43:06;;;;;;;6.87;5.70;;;19.50;99.90;;;;;;5071122;28;20588;-83
2022/08/25 04:45:36;;;;;;;6.53;6.00;;;19.60;99.90;;;;;;5071824;28;20167;-84
2022/08/25 04:48:02;;;;;;;7.40;5.70;;;19.70;99.90;;;;;;5071867;28;20167;-83
2022/08/25 04:50:28;;;;;;;6.93;5.77;;;19.70;99.90;;;;;;5071430;28;20194;-83
2022/08/25 04:52:54;;;;;;;6.87;6.27;;;19.70;99.90;;;;;;5071406;28;20886;-84
2022/08/25 04:55:20;;;;;;;8.97;6.67;;;19.70;99.90;;;;;;5071445;28;20179;-83
2022/08/25 04:57:47;;;;;;;7.57;5.77;;;19.70;99.90;;;;;;5070616;28;20231;-83
2022/08/25 05:00:13;;;;;;;6.77;6.00;;;19.70;99.90;;;;;;5069744;28;20685;-84
2022/08/25 05:02:39;;;;;;;9.00;5.73;;;19.80;99.90;;;;;;5071197;28;20246;-84
2022/08/25 05:05:05;;;;;;;7.33;6.37;;;19.80;99.90;;;;;;5071361;28;20250;-84
2022/08/25 05:07:31;;;;;;;6.70;6.03;;;19.80;99.90;;;;;;5071409;28;20206;-83
2022/08/25 05:09:57;;;;;;;7.13;6.17;;;19.80;99.90;;;;;;5070259;28;20207;-82
2022/08/25 05:12:23;;;;;;;6.80;6.20;;;19.80;99.90;;;;;;5070746;28;20220;-83
2022/08/25 05:14:52;;;;;;;6.43;5.83;;;19.90;99.90;;;;;;5070369;28;20178;-83
2022/08/25 05:17:17;;;;;;;7.00;6.20;;;19.90;99.90;;;;;;5070820;28;20199;-83
2022/08/25 05:19:43;;;;;;;7.20;6.20;;;20.00;99.90;;;;;;5070599;28;20757;-84
2022/08/25 05:22:09;;;;;;;6.67;5.97;;;20.00;99.90;;;;;;5071168;28;20224;-84
2022/08/25 05:24:35;;;;;;;7.73;6.07;;;20.10;99.90;;;;;;5070643;28;20171;-83
2022/08/25 05:27:02;;;;;;;7.23;6.47;;;20.10;99.90;;;;;;5068755;28;20646;-84
2022/08/25 05:29:28;;;;;;;8.97;6.43;;;20.10;99.90;;;;;;5068826;28;20179;-83
2022/08/25 05:31:54;;;;;;;7.13;6.37;;;20.20;99.90;;;;;;5069450;28;20190;-84
2022/08/25 05:34:20;;;;;;;6.43;5.83;;;20.30;99.90;;;;;;5070635;28;20171;-83
2022/08/25 05:36:47;;;;;;;9.20;5.97;;;20.40;99.90;;;;;;5070038;28;20183;-82
2022/08/25 05:39:13;;;;;;;6.57;5.90;;;20.40;99.90;;;;;;5069641;28;20195;-84
2022/08/25 05:41:39;;;;;;;8.23;6.07;;;20.50;99.90;;;;;;5068728;28;20174;-83
2022/08/25 05:44:06;;;;;;;7.83;6.10;;;20.60;99.90;;;;;;5070621;28;20182;-83
2022/08/25 05:46:31;;;;;;;7.60;6.07;;;20.60;99.90;;;;;;5070569;28;20529;-83
2022/08/25 05:48:57;;;;;;;7.00;6.30;;;20.70;99.90;;;;;;5069313;28;20175;-83
2022/08/25 05:51:23;;;;;;;6.30;5.77;;;20.80;99.90;;;;;;5070347;28;20163;-83
2022/08/25 05:53:50;;;;;;;8.47;6.17;;;20.90;99.90;;;;;;5070402;28;20199;-84
2022/08/25 05:56:17;;;;;;;6.43;5.80;;;21.00;99.90;;;;;;5068739;28;20175;-84
2022/08/25 05:58:43;;;;;;;6.47;5.77;;;21.00;99.90;;;;;;5069041;28;20309;-83
2022/08/25 06:04:02;;;;;;;6.43;5.87;;;21.30;99.90;;;;;;5070740;28;20534;-83
2022/08/25 06:06:27;;;;;;;7.50;5.60;;;21.50;99.90;;;;;;5069083;28;20776;-83
2022/08/25 06:08:53;;;;;;;7.33;5.83;;;21.50;99.90;;;;;;5085728;28;20171;-84
2022/08/25 06:11:19;;;;;;;6.90;5.80;;;21.60;99.90;;;;;;5084412;28;20171;-84
2022/08/25 06:13:45;;;;;;;6.63;5.73;;;21.70;99.90;;;;;;5073187;28;20175;-84
2022/08/25 06:16:11;;;;;;;6.87;6.00;;;21.80;99.90;;;;;;5073387;28;20519;-82
2022/08/25 06:18:37;;;;;;;8.03;5.60;;;21.80;99.90;;;;;;5070645;28;20242;-81
2022/08/25 06:21:09;;;;;;;7.80;5.60;;;21.90;99.90;;;;;;5070171;28;20171;-82
2022/08/25 06:23:36;;;;;;;9.13;5.90;;;21.90;99.90;;;;;;5069857;28;20179;-81
2022/08/25 06:26:02;;;;;;;7.70;5.77;;;21.90;99.90;;;;;;5069805;28;20640;-81
2022/08/25 06:28:28;;;;;;;7.57;6.20;;;22.00;99.90;;;;;;5069606;28;20175;-81
2022/08/25 06:30:59;;;;;;;6.40;5.80;;;22.00;99.90;;;;;;5069442;28;20194;-82
2022/08/25 06:33:24;;;;;;;7.63;5.70;;;22.10;99.90;;;;;;5069661;28;20636;-80
2022/08/25 06:35:54;;;;;;;13.98;5.50;;;22.20;99.90;;;;;;5069631;28;20172;-81
2022/08/25 06:38:20;;;;;;;6.60;5.93;;;22.30;99.90;;;;;;5069231;28;20214;-81
2022/08/25 06:40:47;;;;;;;9.75;6.07;;;22.40;99.90;;;;;;5069650;28;20232;-81
2022/08/25 06:43:14;;;;;;;12.32;5.65;;;22.60;99.90;;;;;;5069694;28;20252;-81
2022/08/25 06:45:42;;;;;;;6.00;5.43;;;22.70;99.90;;;;;;5069278;28;20209;-82
2022/08/25 06:48:08;;;;;;;7.07;5.80;;;22.80;99.90;;;;;;5069550;28;20178;-82
2022/08/25 06:50:33;;;;;;;7.63;5.30;;;22.90;99.90;;;;;;5069393;28;20167;-82
2022/08/25 06:52:59;;;;;;;7.18;5.18;;;23.00;99.90;;;;;;5069239;28;20734;-82
2022/08/25 06:55:25;;;;;;;6.60;5.45;;;23.10;99.90;;;;;;5069581;28;20179;-82
2022/08/25 06:57:52;;;;;;;6.65;5.50;;;23.30;99.90;;;;;;5069172;28;20222;-82
2022/08/25 07:00:19;;;;;;;6.78;5.30;;;23.40;99.90;;;;;;5069428;28;20182;-81
2022/08/25 07:02:46;;;;;;;6.45;5.85;;;23.40;99.90;;;;;;5069219;28;20199;-82
2022/08/25 07:05:12;;;;;;;6.35;5.80;;;23.50;99.90;;;;;;5069292;28;20190;-81
2022/08/25 07:07:38;;;;;;;5.60;5.10;;;23.60;99.90;;;;;;5072980;28;20163;-81
2022/08/25 07:10:04;;;;;;;8.07;5.57;;;23.80;99.90;;;;;;5071903;28;20182;-81
2022/08/25 07:12:30;;;;;;;7.30;6.40;;;23.90;99.90;;;;;;5072536;28;20178;-82
2022/08/25 07:14:56;;;;;;;9.95;5.82;;;24.00;99.90;;;;;;5072780;28;20179;-82
2022/08/25 07:17:22;;;;;;;7.63;6.00;;;24.00;99.90;;;;;;5072452;28;20203;-81
2022/08/25 07:19:48;;;;;;;7.78;6.22;;;24.00;99.90;;;;;;5072313;28;20479;-82
2022/08/25 07:22:14;;;;;;;9.80;5.75;;;23.90;99.90;;;;;;5072567;28;20225;-81
2022/08/25 07:24:40;;;;;;;7.13;6.43;;;23.80;99.90;;;;;;5072260;28;20179;-82
2022/08/25 07:27:06;;;;;;;8.32;6.57;;;23.80;99.90;;;;;;5072367;28;20171;-82
2022/08/25 07:29:35;;;;;;;9.15;6.95;;;23.80;99.90;;;;;;5072537;28;20194;-82
2022/08/25 07:32:01;;;;;;;6.95;5.72;;;23.70;99.90;;;;;;5072358;28;20201;-81
2022/08/25 07:37:11;;;;;;;11.70;6.38;;;23.70;99.90;;;;;;5071537;28;20162;-84
2022/08/25 07:39:37;;;;;;;7.20;6.45;;;23.70;99.90;;;;;;5070426;28;20187;-84
2022/08/25 07:42:04;;;;;;;8.63;6.70;;;23.70;99.90;;;;;;5071338;28;20217;-83
2022/08/25 07:44:30;;;;;;;7.85;6.35;;;23.80;99.90;;;;;;5076480;28;20194;-93
2022/08/25 07:46:56;;;;;;;7.65;6.95;;;23.90;99.90;;;;;;5079029;28;20194;-92
2022/08/25 07:49:24;;;;;;;10.77;6.72;;;23.90;99.90;;;;;;5095945;28;20251;-83
2022/08/25 07:51:51;;;;;;;8.23;6.40;;;24.00;99.90;;;;;;5078011;28;20254;-84
2022/08/25 07:54:17;;;;;;;10.20;6.90;;;24.00;99.90;;;;;;5073279;28;20171;-84
2022/08/25 07:56:43;;;;;;;10.52;7.72;;;23.90;99.90;;;;;;5072209;28;20175;-84
2022/08/25 07:59:09;;;;;;;7.88;7.18;;;24.00;99.90;;;;;;5070631;28;20557;-84
2022/08/25 08:01:36;;;;;;;9.15;6.93;;;24.00;99.90;;;;;;5072593;28;20630;-83
2022/08/25 08:04:03;;;;;;;11.00;7.10;;;23.90;99.90;;;;;;5071985;28;20728;-83
2022/08/25 08:06:29;;;;;;;9.27;7.10;;;24.00;99.90;;;;;;5072370;28;20190;-84
2022/08/25 08:08:55;;;;;;;7.78;7.03;;;24.00;99.90;;;;;;5070859;28;20179;-84
2022/08/25 08:11:27;;;;;;;9.40;7.28;;;24.00;99.90;;;;;;5072020;28;20511;-84
2022/08/25 08:13:54;;;;;;;9.55;7.53;;;24.10;99.90;;;;;;5072162;28;20515;-84
2022/08/25 08:16:22;;;;;;;9.40;7.10;;;24.10;99.90;;;;;;5072257;28;20206;-84
2022/08/25 08:18:48;;;;;;;8.30;7.15;;;24.00;99.90;;;;;;5071915;28;20210;-84
2022/08/25 08:21:31;;;;;;;14.73;8.05;;;24.00;99.90;;;;;;5071739;28;20169;-84
2022/08/25 08:23:58;;;;;;;8.88;7.95;;;23.90;99.90;;;;;;5071901;28;20167;-84
2022/08/25 08:26:25;;;;;;;13.00;7.82;;;23.90;99.90;;;;;;5072018;28;20176;-84
2022/08/25 08:28:51;;;;;;;10.00;8.00;;;23.80;99.90;;;;;;5071608;28;20172;-84
2022/08/25 08:31:19;;;;;;;11.90;7.90;;;23.70;99.90;;;;;;5071746;28;20189;-84
2022/08/25 08:33:47;;;;;;;10.45;7.97;;;23.60;99.90;;;;;;5070587;28;20167;-84
2022/08/25 08:36:14;;;;;;;9.73;7.55;;;23.60;99.90;;;;;;5071916;28;20171;-84
2022/08/25 08:38:42;;;;;;;13.55;8.27;;;23.70;99.90;;;;;;5071087;28;20474;-84
2022/08/25 08:44:52;;;;;;;13.10;8.48;;;23.80;99.90;;;;;;5072348;28;20213;-85
2022/08/25 08:47:51;;;;;;;12.18;8.77;;;24.00;99.90;;;;;;5071064;28;20207;-84
2022/08/25 08:50:41;;;;;;;13.35;8.52;;;24.20;99.90;;;;;;5071709;28;20175;-84
2022/08/25 08:53:20;;;;;;;11.48;8.98;;;24.40;99.90;;;;;;5071557;28;20163;-84
2022/08/25 08:55:54;;;;;;;9.38;8.02;;;24.60;99.90;;;;;;5071661;28;20208;-84
2022/08/25 08:58:26;;;;;;;10.48;7.43;;;24.60;99.90;;;;;;5070960;28;20234;-84
2022/08/25 09:00:55;;;;;;;9.63;7.68;;;24.70;99.90;;;;;;5071250;28;20155;-84
2022/08/25 09:03:43;;;;;;;13.00;7.88;;;24.70;99.90;;;;;;5071276;28;20174;-84
2022/08/25 09:06:36;;;;;;;15.57;8.68;;;24.70;99.90;;;;;;5071541;28;20169;-84
2022/08/25 09:09:05;;;;;;;12.85;8.05;;;24.60;99.90;;;;;;5071547;28;20198;-84
2022/08/25 09:12:03;;;;;;;10.27;9.30;;;24.60;99.90;;;;;;5070695;28;20167;-84
2022/08/25 09:14:51;;;;;;;11.50;8.18;;;24.50;99.90;;;;;;5053169;28;20586;-84
2022/08/25 09:17:42;;;;;;;10.93;8.50;;;24.40;99.90;;;;;;5071887;28;20172;-84
2022/08/25 09:20:23;;;;;;;11.23;7.60;;;24.40;99.90;;;;;;5071750;28;20541;-84
2022/08/25 09:23:24;;;;;;;12.38;8.15;;;24.50;99.90;;;;;;5069658;28;20580;-84
2022/08/25 09:26:13;;;;;;;11.45;8.32;;;24.50;99.90;;;;;;5030230;28;20188;-84
2022/08/25 09:28:49;;;;;;;11.65;7.32;;;24.50;99.90;;;;;;5050483;28;20250;-84
2022/08/25 09:31:30;;;;;;;9.88;8.35;;;24.70;99.90;;;;;;5030224;28;20660;-84
2022/08/25 09:33:59;;;;;;;9.70;8.50;;;24.90;99.90;;;;;;5028129;28;20188;-84
2022/08/25 09:36:25;;;;;;;13.63;8.52;;;24.90;99.90;;;;;;5028162;28;20173;-84
2022/08/25 09:38:52;;;;;;;10.32;8.23;;;24.90;99.90;;;;;;5028381;28;20307;-84
2022/08/25 09:41:42;;;;;;;10.10;8.77;;;24.90;99.90;;;;;;5011976;28;20196;-84
2022/08/25 09:44:42;;;;;;;12.18;7.85;;;24.90;99.90;;;;;;5028480;28;20206;-84
2022/08/25 09:47:19;;;;;;;14.68;8.48;;;25.00;99.90;;;;;;5017495;28;20189;-84
2022/08/25 09:49:51;;;;;;;12.00;8.40;;;25.10;99.90;;;;;;5028466;28;20203;-84
2022/08/25 09:52:30;;;;;;;9.05;7.93;;;25.20;99.90;;;;;;5028315;28;20177;-84
2022/08/25 09:55:04;;;;;;;12.45;8.05;;;25.30;99.90;;;;;;5027776;28;20206;-84
2022/08/25 09:57:45;;;;;;;10.25;7.88;;;25.40;99.90;;;;;;5027419;28;20232;-84
2022/08/25 10:00:12;;;;;;;10.55;8.38;;;25.40;99.90;;;;;;5054946;28;20669;-84
2022/08/25 10:02:38;;;;;;;15.63;8.50;;;25.40;99.90;;;;;;5070426;28;20179;-84
2022/08/25 10:05:25;;;;;;;10.82;8.10;;;25.40;99.90;;;;;;5070487;28;20175;-84
2022/08/25 10:07:55;;;;;;;10.65;8.25;;;25.50;99.90;;;;;;5070923;28;20531;-84
2022/08/25 10:10:29;;;;;;;12.43;7.93;;;25.50;99.90;;;;;;5070668;28;20286;-84
2022/08/25 10:12:58;;;;;;;11.60;8.63;;;25.40;99.90;;;;;;5070648;28;20162;-84
2022/08/25 10:15:36;;;;;;;13.10;8.52;;;25.50;99.90;;;;;;5070587;28;20175;-84
2022/08/25 10:18:20;;;;;;;11.50;8.27;;;25.50;99.90;;;;;;5070522;28;20220;-84
2022/08/25 10:21:05;;;;;;;9.70;8.70;;;25.50;99.90;;;;;;5070463;28;20171;-84
2022/08/25 10:23:35;;;;;;;12.52;8.48;;;25.60;99.90;;;;;;5070410;28;20171;-84
2022/08/25 10:26:07;;;;;;;10.82;8.25;;;25.60;99.90;;;;;;5070312;28;20199;-84
2022/08/25 10:28:49;;;;;;;16.35;9.00;;;25.80;99.90;;;;;;5069369;28;20209;-84
2022/08/25 10:31:28;;;;;;;10.73;8.30;;;25.80;99.90;;;;;;5070562;28;20170;-84
2022/08/25 10:34:10;;;;;;;15.15;8.73;;;25.90;99.90;;;;;;5070467;28;20168;-84
2022/08/25 10:36:48;;;;;;;11.55;8.40;;;25.90;99.90;;;;;;5070979;28;20166;-84
2022/08/25 10:39:26;;;;;;;12.00;7.95;;;26.00;99.90;;;;;;5070543;28;20658;-84
2022/08/25 10:42:07;;;;;;;16.02;8.77;;;26.10;99.90;;;;;;5074258;28;20167;-85
2022/08/25 10:48:02;;;;;;;11.13;8.50;;;26.20;99.90;;;;;;5074289;28;20292;-84
2022/08/25 10:50:56;;;;;;;14.30;8.52;;;26.20;99.90;;;;;;5074133;28;20190;-84
2022/08/25 10:53:45;;;;;;;11.88;8.65;;;26.20;99.90;;;;;;5074223;28;20170;-84
2022/08/25 10:56:28;;;;;;;14.38;8.43;;;26.00;99.90;;;;;;5053543;28;20199;-84
2022/08/25 10:59:06;;;;;;;8.80;7.88;;;26.00;99.90;;;;;;5079165;28;20222;-83
2022/08/25 11:01:50;;;;;;;9.18;8.25;;;26.10;99.90;;;;;;5081399;28;20155;-84
2022/08/25 11:04:42;;;;;;;13.40;8.13;;;26.30;99.90;;;;;;5075136;28;20155;-84
2022/08/25 11:07:40;;;;;;;8.20;7.40;;;26.30;99.90;;;;;;5091683;28;20216;-84
2022/08/25 11:10:59;;;;;;;8.88;7.97;;;26.30;99.90;;;;;;5067173;28;20324;-84
2022/08/25 11:13:30;;;;;;;13.07;7.55;;;26.20;99.90;;;;;;5031678;28;20196;-84
2022/08/25 11:16:20;;;;;;;8.95;7.53;;;26.10;99.90;;;;;;5030887;28;20191;-84
2022/08/25 11:18:53;;;;;;;10.63;7.22;;;25.90;99.90;;;;;;5031020;28;20227;-84
2022/08/25 11:21:26;;;;;;;8.75;6.53;;;25.80;99.90;;;;;;5030974;28;20168;-85
2022/08/25 11:24:19;;;;;;;7.10;6.40;;;25.70;99.90;;;;;;5030578;28;20686;-84
2022/08/25 11:26:52;;;;;;;7.95;7.15;;;25.70;99.90;;;;;;5030784;28;20196;-84
2022/08/25 11:29:20;;;;;;;7.75;7.00;;;25.60;99.90;;;;;;5030840;28;20343;-84
2022/08/25 11:31:50;;;;;;;7.60;6.35;;;25.50;99.90;;;;;;5030536;28;20184;-84
2022/08/25 11:34:17;;;;;;;8.57;6.47;;;25.50;99.90;;;;;;5030155;28;20179;-84
2022/08/25 11:36:56;;;;;;;10.38;7.38;;;25.40;99.90;;;;;;5013698;28;20188;-84
2022/08/25 11:39:36;;;;;;;10.23;7.15;;;25.40;99.90;;;;;;5030295;28;20532;-84
2022/08/25 11:42:31;;;;;;;11.10;7.40;;;25.40;99.90;;;;;;5029949;28;20246;-84
2022/08/25 11:45:31;;;;;;;13.32;7.88;;;25.50;99.90;;;;;;5030104;28;20164;-85
2022/08/25 11:48:20;;;;;;;8.05;7.28;;;25.50;99.90;;;;;;5032740;28;20254;-84
2022/08/25 11:51:08;;;;;;;11.90;7.50;;;25.50;99.90;;;;;;5072456;28;20163;-84
2022/08/25 11:53:37;;;;;;;11.20;8.27;;;25.60;99.90;;;;;;5071334;28;20686;-84
2022/08/25 11:56:36;;;;;;;8.38;7.13;;;25.60;99.90;;;;;;5072388;28;20179;-84
2022/08/25 11:59:04;;;;;;;11.45;7.20;;;25.60;99.90;;;;;;5071180;28;20264;-85
2022/08/25 12:01:38;;;;;;;9.25;6.88;;;25.70;99.90;;;;;;5073053;28;20171;-85
2022/08/25 12:04:32;;;;;;;7.65;6.80;;;25.90;99.90;;;;;;5073267;28;20174;-85
2022/08/25 12:07:10;;;;;;;10.32;7.32;;;26.00;99.90;;;;;;5073099;28;20156;-86
2022/08/25 12:09:52;;;;;;;14.18;7.15;;;26.10;99.90;;;;;;5071091;28;20673;-86
2022/08/25 12:12:30;;;;;;;10.20;7.20;;;26.10;99.90;;;;;;5073641;28;20204;-86
2022/08/25 12:15:26;;;;;;;10.45;7.43;;;26.20;99.90;;;;;;5073046;28;20246;-86
2022/08/25 12:18:10;;;;;;;11.13;7.15;;;26.40;99.90;;;;;;5072209;28;20328;-85
2022/08/25 12:21:00;;;;;;;11.90;7.63;;;26.50;99.90;;;;;;5071240;28;20174;-85
2022/08/25 12:23:37;;;;;;;13.60;7.50;;;26.60;99.90;;;;;;5066394;28;20312;-85
2022/08/25 12:26:12;;;;;;;10.57;7.93;;;26.70;99.90;;;;;;5076404;28;20195;-86
2022/08/25 12:28:54;;;;;;;10.85;7.68;;;26.90;99.90;;;;;;5072120;28;20642;-85
2022/08/25 12:31:32;;;;;;;9.40;7.38;;;27.10;99.90;;;;;;5072039;28;20171;-86
2022/08/25 12:34:09;;;;;;;11.55;6.95;;;27.20;99.90;;;;;;5072233;28;20211;-85
2022/08/25 12:36:35;;;;;;;9.18;7.60;;;27.40;99.90;;;;;;5072022;28;20159;-86
2022/08/25 12:39:27;;;;;;;10.32;7.72;;;27.40;99.90;;;;;;5071598;28;20207;-86
2022/08/25 12:41:58;;;;;;;11.27;7.85;;;27.50;99.90;;;;;;5076456;28;20155;-86
2022/08/25 12:44:46;;;;;;;9.90;7.40;;;27.60;99.90;;;;;;5083771;28;20190;-86
2022/08/25 12:47:18;;;;;;;9.27;7.03;;;27.70;99.90;;;;;;5095445;28;20155;-86
2022/08/25 12:49:45;;;;;;;10.57;6.85;;;27.80;99.90;;;;;;5077740;28;20584;-85
2022/08/25 12:52:31;;;;;;;11.07;7.63;;;27.80;99.90;;;;;;5071578;28;20654;-85
2022/08/25 12:55:02;;;;;;;10.35;7.63;;;27.70;99.90;;;;;;5071695;28;20216;-86
2022/08/25 12:57:41;;;;;;;12.40;7.30;;;27.70;99.90;;;;;;5071198;28;20207;-85
2022/08/25 13:00:22;;;;;;;10.68;7.20;;;27.60;99.90;;;;;;5071552;28;20644;-85
2022/08/25 13:03:24;;;;;;;15.07;7.15;;;27.60;99.90;;;;;;5070856;28;20164;-85
2022/08/25 13:06:35;;;;;;;11.30;8.13;;;27.50;99.90;;;;;;5069946;28;20669;-85
2022/08/25 13:09:35;;;;;;;8.75;7.00;;;27.60;99.90;;;;;;5072998;28;20167;-85
2022/08/25 13:12:22;;;;;;;13.48;7.65;;;27.60;99.90;;;;;;5070500;28;20240;-85
2022/08/25 13:14:54;;;;;;;10.35;6.90;;;27.60;99.90;;;;;;5071665;28;20163;-85
2022/08/25 13:17:38;;;;;;;10.73;7.18;;;27.60;99.90;;;;;;5071071;28;20649;-85
2022/08/25 13:20:41;;;;;;;13.05;7.28;;;27.60;99.90;;;;;;5073538;28;20163;-83
2022/08/25 13:23:11;;;;;;;11.90;7.95;;;27.60;99.90;;;;;;5076792;28;20197;-86